createdAt,value
2023-03-22T00:00:15.575Z,99621.91
2023-03-22T00:01:19.938Z,99623.59
2023-03-22T00:02:23.218Z,99623.63
2023-03-22T00:03:25.581Z,99620.13
2023-03-22T00:04:28.018Z,99628.00
2023-03-22T00:05:33.386Z,99622.69
2023-03-22T00:06:35.669Z,99621.84
2023-03-22T00:07:38.040Z,99623.59
2023-03-22T00:08:40.050Z,99618.38
2023-03-22T00:09:42.220Z,99616.66
2023-03-22T00:10:44.213Z,99617.56
2023-03-22T00:11:46.412Z,99610.56
2023-03-22T00:12:48.449Z,99616.72
2023-03-22T00:13:52.751Z,99618.44
2023-03-22T00:14:55.314Z,99615.84
2023-03-22T00:15:57.885Z,99623.69
2023-03-22T00:17:00.103Z,99623.69
2023-03-22T00:18:05.874Z,99621.97
2023-03-22T00:19:07.890Z,99624.56
2023-03-22T00:20:11.562Z,99624.63
2023-03-22T00:21:15.889Z,99616.75
2023-03-22T00:22:18.028Z,99621.09
2023-03-22T00:23:20.549Z,99615.00
2023-03-22T00:24:22.548Z,99618.47
2023-03-22T00:25:24.436Z,99618.47
2023-03-22T00:26:26.429Z,99620.25
2023-03-22T00:27:28.480Z,99620.28
2023-03-22T00:28:30.824Z,99616.81
2023-03-22T00:29:32.825Z,99615.09
2023-03-22T00:30:35.511Z,99623.84
2023-03-22T00:31:37.552Z,99610.78
2023-03-22T00:32:39.664Z,99606.44
2023-03-22T00:33:41.838Z,99607.34
2023-03-22T00:34:44.529Z,99611.75
2023-03-22T00:35:55.016Z,99612.69
2023-03-22T00:36:57.087Z,99611.84
2023-03-22T00:38:06.387Z,99612.81
2023-03-22T00:39:08.904Z,99609.34
2023-03-22T00:40:14.696Z,99603.28
2023-03-22T00:41:20.617Z,99613.78
2023-03-22T00:42:22.692Z,99606.88
2023-03-22T00:43:24.811Z,99609.50
2023-03-22T00:44:27.175Z,99610.41
2023-03-22T00:45:29.281Z,99606.97
2023-03-22T00:46:31.520Z,99612.28
2023-03-22T00:47:33.878Z,99608.81
2023-03-22T00:48:36.159Z,99601.91
2023-03-22T00:49:38.150Z,99603.66
2023-03-22T00:50:41.492Z,99609.81
2023-03-22T00:51:43.493Z,99602.88
2023-03-22T00:52:45.508Z,99605.53
2023-03-22T00:53:51.136Z,99603.81
2023-03-22T00:54:53.425Z,99600.34
2023-03-22T00:55:57.364Z,99603.00
2023-03-22T00:56:59.408Z,99605.63
2023-03-22T00:58:02.011Z,99607.41
2023-03-22T00:59:04.639Z,99607.41
2023-03-22T01:00:13.985Z,99609.22
2023-03-22T01:01:16.237Z,99603.97
2023-03-22T01:02:18.221Z,99609.25
2023-03-22T01:03:22.231Z,99597.91
2023-03-22T01:04:26.492Z,99602.31
2023-03-22T01:05:28.594Z,99603.22
2023-03-22T01:06:30.774Z,99597.97
2023-03-22T01:07:33.546Z,99605.88
2023-03-22T01:08:39.324Z,99609.41
2023-03-22T01:11:04.668Z,99600.69
2023-03-22T01:12:07.168Z,99611.16
2023-03-22T01:13:09.998Z,99598.97
2023-03-22T01:14:14.073Z,99605.13
2023-03-22T01:15:15.935Z,99610.31
2023-03-22T01:16:19.219Z,99599.06
2023-03-22T01:17:21.431Z,99600.84
2023-03-22T01:18:23.978Z,99601.72
2023-03-22T01:19:27.594Z,99605.25
2023-03-22T01:20:30.447Z,99601.78
2023-03-22T01:21:32.683Z,99600.06
2023-03-22T01:22:34.743Z,99600.97
2023-03-22T01:23:37.741Z,99601.81
2023-03-22T01:24:39.662Z,99599.25
2023-03-22T01:25:41.739Z,99591.38
2023-03-22T01:26:43.659Z,99602.78
2023-03-22T01:27:46.190Z,99601.91
2023-03-22T01:28:48.211Z,99598.44
2023-03-22T01:29:50.971Z,99601.97
2023-03-22T01:30:53.158Z,99602.84
2023-03-22T01:31:55.222Z,99595.03
2023-03-22T01:32:57.444Z,99600.28
2023-03-22T01:33:59.415Z,99595.94
2023-03-22T01:35:01.494Z,99596.81
2023-03-22T01:36:04.198Z,99594.19
2023-03-22T01:37:06.421Z,99598.59
2023-03-22T01:38:08.510Z,99599.47
2023-03-22T01:39:10.849Z,99603.84
2023-03-22T01:40:14.613Z,99603.88
2023-03-22T01:41:17.816Z,99601.28
2023-03-22T01:42:22.194Z,99600.41
2023-03-22T01:43:24.222Z,99597.78
2023-03-22T01:44:31.055Z,99597.84
2023-03-22T01:45:37.012Z,99600.47
2023-03-22T01:46:41.433Z,99592.63
2023-03-22T01:47:54.275Z,99587.41
2023-03-22T01:48:56.518Z,99588.31
2023-03-22T01:49:58.627Z,99590.03
2023-03-22T01:51:11.257Z,99582.19
2023-03-22T01:52:15.704Z,99580.47
2023-03-22T01:53:19.744Z,99583.97
2023-03-22T01:54:47.382Z,99589.19
2023-03-22T01:55:50.004Z,99590.09
2023-03-22T01:56:52.119Z,99591.88
2023-03-22T01:57:55.626Z,99587.53
2023-03-22T01:58:57.787Z,99596.28
2023-03-22T02:00:00.816Z,99588.41
2023-03-22T02:01:04.447Z,99594.53
2023-03-22T02:02:07.184Z,99576.19
2023-03-22T02:03:10.388Z,99582.31
2023-03-22T02:04:16.885Z,99587.56
2023-03-22T02:05:19.962Z,99583.22
2023-03-22T02:06:22.181Z,99584.09
2023-03-22T02:07:27.292Z,99584.09
2023-03-22T02:08:31.039Z,99583.22
2023-03-22T02:09:34.414Z,99593.69
2023-03-22T02:10:36.666Z,99596.31
2023-03-22T02:11:42.224Z,99595.47
2023-03-22T02:12:54.259Z,99596.31
2023-03-22T02:14:17.900Z,99592.84
2023-03-22T02:15:28.048Z,99584.13
2023-03-22T02:16:54.185Z,99594.59
2023-03-22T02:18:34.671Z,99589.38
2023-03-22T02:19:45.695Z,99585.03
2023-03-22T02:20:56.720Z,99576.31
2023-03-22T02:22:28.280Z,99582.41
2023-03-22T02:24:07.436Z,99571.97
2023-03-22T02:25:24.553Z,99578.97
2023-03-22T02:26:47.174Z,99583.31
2023-03-22T02:28:14.840Z,99573.75
2023-03-22T02:29:46.143Z,99580.72
2023-03-22T02:30:51.446Z,99571.19
2023-03-22T02:32:36.886Z,99574.69
2023-03-22T02:34:00.086Z,99565.06
2023-03-22T02:35:27.991Z,99572.09
2023-03-22T02:37:23.777Z,99572.09
2023-03-22T02:38:47.853Z,99573.84
2023-03-22T02:39:59.711Z,99583.47
2023-03-22T02:41:04.729Z,99580.00
2023-03-22T02:42:25.168Z,99579.09
2023-03-22T02:44:02.047Z,99580.84
2023-03-22T02:45:41.747Z,99587.84
2023-03-22T02:46:48.901Z,99578.22
2023-03-22T02:48:03.042Z,99589.56
2023-03-22T02:49:34.336Z,99585.19
2023-03-22T02:50:56.901Z,99591.28
2023-03-22T02:52:01.714Z,99586.03
2023-03-22T02:53:10.731Z,99590.41
2023-03-22T02:54:44.900Z,99586.91
2023-03-22T02:56:03.813Z,99585.16
2023-03-22T02:57:14.198Z,99586.00
2023-03-22T02:58:30.221Z,99581.66
2023-03-22T02:59:37.700Z,99583.38
2023-03-22T03:00:42.045Z,99579.88
2023-03-22T03:01:54.834Z,99585.09
2023-03-22T03:03:02.171Z,99584.22
2023-03-22T03:04:09.757Z,99585.94
2023-03-22T03:05:13.720Z,99578.06
2023-03-22T03:06:20.849Z,99584.16
2023-03-22T03:07:27.504Z,99583.28
2023-03-22T03:08:31.120Z,99577.16
2023-03-22T03:09:33.870Z,99585.84
2023-03-22T03:10:36.471Z,99590.19
2023-03-22T03:11:38.467Z,99589.28
2023-03-22T03:12:40.609Z,99579.66
2023-03-22T03:13:42.691Z,99590.09
2023-03-22T03:14:45.016Z,99587.44
2023-03-22T03:15:55.462Z,99589.13
2023-03-22T03:17:25.100Z,99593.47
2023-03-22T03:19:01.698Z,99586.41
2023-03-22T03:20:22.060Z,99585.56
2023-03-22T03:21:45.571Z,99579.47
2023-03-22T03:23:07.428Z,99576.84
2023-03-22T03:24:23.636Z,99574.19
2023-03-22T03:25:51.786Z,99576.75
2023-03-22T03:26:56.337Z,99582.00
2023-03-22T03:28:10.251Z,99584.56
2023-03-22T03:29:15.698Z,99584.50
2023-03-22T03:30:31.832Z,99590.56
2023-03-22T03:31:39.939Z,99583.47
2023-03-22T03:32:52.939Z,99589.53
2023-03-22T03:34:05.969Z,99574.63
2023-03-22T03:35:22.757Z,99580.66
2023-03-22T03:36:25.987Z,99570.81
2023-03-22T03:37:35.433Z,99567.22
2023-03-22T03:38:42.733Z,99563.59
2023-03-22T03:40:09.761Z,99567.81
2023-03-22T03:41:18.941Z,99575.25
2023-03-22T03:42:22.825Z,99574.84
2023-03-22T03:43:25.830Z,99583.06
2023-03-22T03:44:30.657Z,99587.81
2023-03-22T03:45:35.025Z,99580.41
2023-03-22T03:46:37.405Z,99583.41
2023-03-22T03:47:39.778Z,99574.16
2023-03-22T03:48:47.176Z,99576.41
2023-03-22T03:49:50.446Z,99575.16
2023-03-22T03:50:54.426Z,99574.09
2023-03-22T03:51:56.786Z,99565.09
2023-03-22T03:52:59.262Z,99572.66
2023-03-22T03:54:01.278Z,99567.09
2023-03-22T03:55:03.372Z,99565.03
2023-03-22T03:56:05.987Z,99566.41
2023-03-22T03:57:07.953Z,99571.41
2023-03-22T03:58:10.374Z,99586.00
2023-03-22T03:59:12.541Z,99587.59
2023-03-22T04:00:15.455Z,99588.28
2023-03-22T04:01:19.875Z,99593.28
2023-03-22T04:02:21.867Z,99584.19
2023-03-22T04:03:23.836Z,99587.56
2023-03-22T04:04:29.024Z,99582.88
2023-03-22T04:05:31.150Z,99592.31
2023-03-22T04:06:34.903Z,99582.53
2023-03-22T04:07:37.582Z,99588.50
2023-03-22T04:08:39.655Z,99590.94
2023-03-22T04:09:41.619Z,99588.22
2023-03-22T04:10:44.392Z,99574.78
2023-03-22T04:11:46.791Z,99573.91
2023-03-22T04:12:49.030Z,99573.91
2023-03-22T04:13:51.076Z,99573.81
2023-03-22T04:14:53.403Z,99578.78
2023-03-22T04:15:57.672Z,99571.41
2023-03-22T04:16:59.767Z,99574.56
2023-03-22T04:18:01.919Z,99573.78
2023-03-22T04:19:04.010Z,99580.69
2023-03-22T04:20:11.282Z,99582.16
2023-03-22T04:21:13.624Z,99585.66
2023-03-22T04:22:18.623Z,99581.09
2023-03-22T04:23:23.263Z,99581.03
2023-03-22T04:24:25.419Z,99588.03
2023-03-22T04:25:30.391Z,99588.13
2023-03-22T04:26:33.609Z,99592.41
2023-03-22T04:27:35.717Z,99592.41
2023-03-22T04:28:37.705Z,99592.47
2023-03-22T04:29:39.756Z,99596.66
2023-03-22T04:30:45.861Z,99596.56
2023-03-22T04:31:48.262Z,99601.75
2023-03-22T04:32:50.385Z,99608.84
2023-03-22T04:33:56.728Z,99599.28
2023-03-22T04:34:58.791Z,99604.38
2023-03-22T04:36:02.539Z,99596.25
2023-03-22T04:37:06.279Z,99602.97
2023-03-22T04:38:09.892Z,99601.94
2023-03-22T04:39:12.667Z,99595.47
2023-03-22T04:40:21.078Z,99605.97
2023-03-22T04:41:23.726Z,99603.06
2023-03-22T04:42:26.760Z,99600.28
2023-03-22T04:43:28.796Z,99606.47
2023-03-22T04:44:31.108Z,99606.34
2023-03-22T04:45:35.127Z,99614.97
2023-03-22T04:46:37.415Z,99618.25
2023-03-22T04:47:40.014Z,99604.78
2023-03-22T04:48:43.071Z,99612.72
2023-03-22T04:49:45.118Z,99610.19
2023-03-22T04:50:47.069Z,99608.31
2023-03-22T04:51:49.089Z,99605.78
2023-03-22T04:52:51.228Z,99610.53
2023-03-22T04:53:54.132Z,99610.53
2023-03-22T04:54:56.148Z,99609.81
2023-03-22T04:55:58.404Z,99605.56
2023-03-22T04:57:01.276Z,99611.59
2023-03-22T04:58:03.381Z,99611.47
2023-03-22T04:59:05.427Z,99611.38
2023-03-22T05:00:11.073Z,99605.00
2023-03-22T05:01:15.062Z,99609.97
2023-03-22T05:02:17.385Z,99624.34
2023-03-22T05:03:21.764Z,99622.97
2023-03-22T05:04:23.958Z,99616.06
2023-03-22T05:05:25.997Z,99617.81
2023-03-22T05:06:28.173Z,99608.13
2023-03-22T05:07:30.428Z,99612.56
2023-03-22T05:08:33.340Z,99622.19
2023-03-22T05:09:35.552Z,99622.63
2023-03-22T05:10:41.092Z,99620.78
2023-03-22T05:11:43.459Z,99624.19
2023-03-22T05:12:45.672Z,99624.91
2023-03-22T05:13:47.588Z,99623.22
2023-03-22T05:14:49.625Z,99625.16
2023-03-22T05:15:52.011Z,99614.91
2023-03-22T05:16:54.500Z,99623.97
2023-03-22T05:17:56.534Z,99615.34
2023-03-22T05:18:58.578Z,99621.88
2023-03-22T05:20:08.441Z,99626.16
2023-03-22T05:21:15.762Z,99619.38
2023-03-22T05:22:19.450Z,99612.03
2023-03-22T05:23:22.462Z,99625.03
2023-03-22T05:24:24.623Z,99627.56
2023-03-22T05:25:26.779Z,99623.94
2023-03-22T05:26:28.958Z,99618.31
2023-03-22T05:27:35.219Z,99613.53
2023-03-22T05:28:38.820Z,99607.19
2023-03-22T05:29:45.235Z,99615.69
2023-03-22T05:30:49.055Z,99610.84
2023-03-22T05:31:51.246Z,99606.28
2023-03-22T05:33:03.439Z,99609.03
2023-03-22T05:34:06.175Z,99618.66
2023-03-22T05:35:08.624Z,99623.88
2023-03-22T05:36:13.980Z,99620.22
2023-03-22T05:37:17.019Z,99615.97
2023-03-22T05:38:19.134Z,99618.75
2023-03-22T05:39:21.244Z,99626.84
2023-03-22T05:40:23.939Z,99624.44
2023-03-22T05:41:26.163Z,99623.88
2023-03-22T05:42:28.371Z,99621.53
2023-03-22T05:43:30.468Z,99619.00
2023-03-22T05:44:32.548Z,99615.53
2023-03-22T05:45:37.046Z,99619.03
2023-03-22T05:46:39.087Z,99613.91
2023-03-22T05:47:41.205Z,99609.59
2023-03-22T05:48:43.490Z,99614.09
2023-03-22T05:49:45.879Z,99615.91
2023-03-22T05:50:47.946Z,99611.59
2023-03-22T05:51:50.736Z,99617.91
2023-03-22T05:52:52.930Z,99613.59
2023-03-22T05:53:55.414Z,99619.66
2023-03-22T05:54:57.490Z,99618.00
2023-03-22T05:56:00.909Z,99619.88
2023-03-22T05:57:03.152Z,99621.75
2023-03-22T05:58:05.562Z,99623.47
2023-03-22T05:59:07.826Z,99621.75
2023-03-22T06:00:13.585Z,99617.53
2023-03-22T06:01:20.624Z,99611.44
2023-03-22T06:02:23.068Z,99622.13
2023-03-22T06:03:25.143Z,99612.53
2023-03-22T06:04:27.354Z,99616.97
2023-03-22T06:05:31.991Z,99615.22
2023-03-22T06:06:33.966Z,99608.28
2023-03-22T06:07:36.059Z,99613.56
2023-03-22T06:08:39.694Z,99618.72
2023-03-22T06:09:41.865Z,99618.66
2023-03-22T06:10:43.776Z,99625.56
2023-03-22T06:11:45.832Z,99619.44
2023-03-22T06:12:47.940Z,99621.09
2023-03-22T06:13:50.086Z,99621.19
2023-03-22T06:14:52.484Z,99629.88
2023-03-22T06:15:54.520Z,99622.91
2023-03-22T06:16:56.680Z,99623.75
2023-03-22T06:17:58.706Z,99626.38
2023-03-22T06:19:00.786Z,99622.78
2023-03-22T06:20:09.492Z,99616.53
2023-03-22T06:21:11.444Z,99627.91
2023-03-22T06:22:13.887Z,99615.53
2023-03-22T06:23:16.026Z,99613.00
2023-03-22T06:24:18.107Z,99618.22
2023-03-22T06:25:20.158Z,99619.13
2023-03-22T06:26:22.194Z,99618.22
2023-03-22T06:27:24.216Z,99619.16
2023-03-22T06:28:30.016Z,99630.72
2023-03-22T06:29:32.069Z,99622.03
2023-03-22T06:30:34.106Z,99627.25
2023-03-22T06:31:36.411Z,99627.31
2023-03-22T06:32:38.480Z,99634.31
2023-03-22T06:33:40.458Z,99635.16
2023-03-22T06:34:42.739Z,99633.31
2023-03-22T06:35:44.920Z,99625.31
2023-03-22T06:36:46.992Z,99634.84
2023-03-22T06:37:49.126Z,99635.78
2023-03-22T06:38:51.115Z,99638.59
2023-03-22T06:39:53.527Z,99636.91
2023-03-22T06:40:55.428Z,99633.25
2023-03-22T06:41:57.457Z,99635.78
2023-03-22T06:43:02.284Z,99639.19
2023-03-22T06:44:06.380Z,99642.50
2023-03-22T06:45:12.699Z,99636.38
2023-03-22T06:46:14.815Z,99635.50
2023-03-22T06:47:16.983Z,99628.47
2023-03-22T06:48:19.286Z,99634.59
2023-03-22T06:49:22.134Z,99636.38
2023-03-22T06:50:24.091Z,99637.31
2023-03-22T06:51:26.275Z,99638.34
2023-03-22T06:52:28.438Z,99649.06
2023-03-22T06:53:30.825Z,99648.31
2023-03-22T06:54:32.949Z,99639.56
2023-03-22T06:55:35.291Z,99648.50
2023-03-22T06:56:37.416Z,99648.59
2023-03-22T06:57:39.445Z,99645.09
2023-03-22T06:58:41.889Z,99646.91
2023-03-22T06:59:43.934Z,99643.47
2023-03-22T07:00:46.296Z,99650.53
2023-03-22T07:01:48.766Z,99646.22
2023-03-22T07:02:52.769Z,99651.84
2023-03-22T07:03:54.984Z,99657.81
2023-03-22T07:04:56.915Z,99648.34
2023-03-22T07:06:08.509Z,99656.44
2023-03-22T07:07:10.534Z,99656.78
2023-03-22T07:08:12.713Z,99653.47
2023-03-22T07:09:14.686Z,99666.66
2023-03-22T07:10:16.918Z,99655.38
2023-03-22T07:11:19.014Z,99659.00
2023-03-22T07:12:21.182Z,99659.19
2023-03-22T07:13:23.822Z,99653.38
2023-03-22T07:14:26.150Z,99653.63
2023-03-22T07:15:28.389Z,99654.63
2023-03-22T07:16:30.524Z,99652.88
2023-03-22T07:17:32.927Z,99654.63
2023-03-22T07:18:34.946Z,99657.25
2023-03-22T07:19:37.069Z,99658.06
2023-03-22T07:20:41.819Z,99650.28
2023-03-22T07:21:44.332Z,99657.44
2023-03-22T07:22:46.727Z,99657.47
2023-03-22T07:23:48.763Z,99660.13
2023-03-22T07:24:57.190Z,99663.72
2023-03-22T07:26:01.153Z,99653.34
2023-03-22T07:27:03.480Z,99658.59
2023-03-22T07:56:04.213Z,99686.47
2023-03-22T07:57:07.138Z,99687.00
2023-03-22T07:58:09.571Z,99681.88
2023-03-22T07:59:11.804Z,99687.13
2023-03-22T08:00:14.968Z,99682.56
2023-03-22T08:01:17.245Z,99689.78
2023-03-22T08:02:19.283Z,99695.81
2023-03-22T08:03:22.488Z,99695.84
2023-03-22T08:04:25.319Z,99698.56
2023-03-22T08:05:27.515Z,99698.56
2023-03-22T08:06:30.085Z,99695.97
2023-03-22T08:07:32.807Z,99703.09
2023-03-22T08:08:37.252Z,99696.06
2023-03-22T08:09:39.476Z,99697.03
2023-03-22T08:10:41.623Z,99686.59
2023-03-22T08:11:43.928Z,99695.28
2023-03-22T08:12:46.008Z,99691.91
2023-03-22T08:13:48.148Z,99687.53
2023-03-22T08:14:51.414Z,99693.63
2023-03-22T08:15:53.530Z,99688.38
2023-03-22T08:16:55.814Z,99690.97
2023-03-22T08:17:58.350Z,99691.78
2023-03-22T08:19:00.625Z,99696.84
2023-03-22T08:20:08.751Z,99693.38
2023-03-22T08:21:11.300Z,99681.94
2023-03-22T08:22:13.858Z,99697.66
2023-03-22T08:23:16.514Z,99695.88
2023-03-22T08:24:18.654Z,99683.63
2023-03-22T08:25:21.820Z,99689.63
2023-03-22T08:26:24.497Z,99691.31
2023-03-22T08:27:27.528Z,99692.94
2023-03-22T08:28:29.658Z,99697.22
2023-03-22T08:29:31.818Z,99693.66
2023-03-22T08:30:34.090Z,99694.44
2023-03-22T08:31:36.062Z,99704.00
2023-03-22T08:32:38.325Z,99696.81
2023-03-22T08:33:40.531Z,99700.38
2023-03-22T08:34:43.914Z,99697.94
2023-03-22T08:35:46.781Z,99696.16
2023-03-22T08:36:48.979Z,99693.41
2023-03-22T08:37:57.310Z,99689.97
2023-03-22T08:38:59.632Z,99693.34
2023-03-22T08:40:01.745Z,99697.66
2023-03-22T08:41:04.410Z,99692.19
2023-03-22T08:42:06.435Z,99692.94
2023-03-22T08:43:08.839Z,99692.94
2023-03-22T08:44:11.359Z,99697.91
2023-03-22T08:45:13.565Z,99701.09
2023-03-22T08:46:17.366Z,99700.03
2023-03-22T08:47:19.484Z,99702.63
2023-03-22T08:48:21.598Z,99706.19
2023-03-22T08:49:23.862Z,99711.47
2023-03-22T08:50:26.116Z,99719.34
2023-03-22T08:51:29.545Z,99714.19
2023-03-22T08:52:31.615Z,99701.41
2023-03-22T08:53:33.851Z,99711.06
2023-03-22T08:54:36.339Z,99716.50
2023-03-22T08:55:40.202Z,99714.56
2023-03-22T08:56:42.715Z,99710.00
2023-03-22T08:57:50.587Z,99710.06
2023-03-22T08:58:52.597Z,99718.97
2023-03-22T08:59:54.879Z,99726.88
2023-03-22T09:00:56.895Z,99718.09
2023-03-22T09:01:59.347Z,99714.63
2023-03-22T09:03:01.497Z,99714.47
2023-03-22T09:04:04.659Z,99717.06
2023-03-22T09:05:07.123Z,99711.88
2023-03-22T09:06:10.774Z,99711.16
2023-03-22T09:07:12.955Z,99720.72
2023-03-22T09:08:19.130Z,99726.72
2023-03-22T09:09:21.794Z,99719.59
2023-03-22T09:10:24.003Z,99717.56
2023-03-22T09:11:26.293Z,99721.00
2023-03-22T09:12:30.083Z,99723.78
2023-03-22T09:13:32.398Z,99729.81
2023-03-22T09:14:34.567Z,99715.75
2023-03-22T09:15:36.875Z,99723.69
2023-03-22T09:16:39.153Z,99730.81
2023-03-22T09:17:42.108Z,99730.75
2023-03-22T09:18:44.930Z,99733.22
2023-03-22T09:19:48.118Z,99727.25
2023-03-22T09:20:50.547Z,99734.16
2023-03-22T09:21:52.802Z,99739.19
2023-03-22T09:22:54.984Z,99737.47
2023-03-22T09:23:57.451Z,99747.06
2023-03-22T09:24:59.622Z,99744.53
2023-03-22T09:26:04.044Z,99758.91
2023-03-22T09:27:06.123Z,99752.94
2023-03-22T09:28:08.215Z,99756.38
2023-03-22T09:29:11.117Z,99752.09
2023-03-22T09:30:13.564Z,99750.38
2023-03-22T09:31:18.508Z,99746.84
2023-03-22T09:32:22.357Z,99747.78
2023-03-22T09:33:24.566Z,99751.09
2023-03-22T09:34:27.309Z,99746.47
2023-03-22T09:35:29.402Z,99755.28
2023-03-22T09:36:32.602Z,99760.47
2023-03-22T09:37:34.784Z,99762.19
2023-03-22T09:38:36.807Z,99768.16
2023-03-22T09:39:40.411Z,99763.94
2023-03-22T09:41:01.021Z,99763.75
2023-03-22T09:42:06.475Z,99765.50
2023-03-22T09:43:12.066Z,99758.41
2023-03-22T09:44:35.192Z,99760.22
2023-03-22T09:45:44.222Z,99752.38
2023-03-22T09:46:49.351Z,99766.53
2023-03-22T09:47:55.509Z,99765.63
2023-03-22T09:49:00.412Z,99763.06
2023-03-22T09:50:12.167Z,99769.16
2023-03-22T09:51:21.666Z,99759.47
2023-03-22T09:52:23.710Z,99764.88
2023-03-22T09:53:28.547Z,99760.47
2023-03-22T09:54:42.227Z,99761.09
2023-03-22T09:55:47.014Z,99759.16
2023-03-22T09:56:59.112Z,99764.28
2023-03-22T09:58:07.100Z,99771.09
2023-03-22T09:59:19.089Z,99772.84
2023-03-22T10:00:33.644Z,99771.88
2023-03-22T10:02:00.645Z,99767.44
2023-03-22T10:03:20.256Z,99772.84
2023-03-22T10:04:50.120Z,99767.81
2023-03-22T10:06:05.294Z,99774.81
2023-03-22T10:07:39.022Z,99766.22
2023-03-22T10:09:07.008Z,99774.09
2023-03-22T10:10:12.352Z,99771.34
2023-03-22T10:11:46.085Z,99774.97
2023-03-22T10:12:58.333Z,99777.53
2023-03-22T10:14:13.627Z,99775.81
2023-03-22T10:15:21.645Z,99778.50
2023-03-22T10:16:33.287Z,99771.56
2023-03-22T10:17:37.198Z,99782.25
2023-03-22T10:18:45.523Z,99788.28
2023-03-22T10:20:01.179Z,99782.09
2023-03-22T10:21:06.797Z,99777.06
2023-03-22T10:22:16.457Z,99768.41
2023-03-22T10:23:24.044Z,99778.84
2023-03-22T10:24:33.203Z,99782.31
2023-03-22T10:25:41.646Z,99776.91
2023-03-22T10:26:47.628Z,99785.56
2023-03-22T10:27:51.733Z,99787.44
2023-03-22T10:28:57.835Z,99795.97
2023-03-22T10:30:02.225Z,99795.19
2023-03-22T10:31:07.034Z,99785.59
2023-03-22T10:32:19.074Z,99797.97
2023-03-22T10:33:29.488Z,99793.31
2023-03-22T10:34:31.547Z,99790.38
2023-03-22T10:35:33.844Z,99791.41
2023-03-22T10:36:39.054Z,99795.66
2023-03-22T10:37:42.897Z,99802.47
2023-03-22T10:38:52.517Z,99798.81
2023-03-22T10:39:56.905Z,99796.09
2023-03-22T10:41:01.132Z,99807.47
2023-03-22T10:42:08.327Z,99797.94
2023-03-22T10:43:15.994Z,99797.97
2023-03-22T10:44:19.852Z,99800.50
2023-03-22T10:45:23.694Z,99792.78
2023-03-22T10:46:28.649Z,99798.28
2023-03-22T10:47:40.807Z,99806.94
2023-03-22T10:48:46.850Z,99807.69
2023-03-22T10:49:55.345Z,99802.38
2023-03-22T10:51:00.025Z,99802.47
2023-03-22T10:52:17.782Z,99804.38
2023-03-22T10:53:38.742Z,99807.69
2023-03-22T10:54:40.805Z,99792.78
2023-03-22T10:55:44.521Z,99799.66
2023-03-22T10:56:46.604Z,99802.25
2023-03-22T10:58:12.458Z,99811.66
2023-03-22T10:59:51.895Z,99803.69
2023-03-22T11:00:57.278Z,99804.84
2023-03-22T11:02:02.044Z,99805.72
2023-03-22T11:03:07.320Z,99803.06
2023-03-22T11:04:18.420Z,99808.19
2023-03-22T11:05:25.130Z,99802.91
2023-03-22T11:06:30.363Z,99805.38
2023-03-22T11:07:32.393Z,99817.38
2023-03-22T11:08:52.717Z,99800.41
2023-03-22T11:10:13.458Z,99803.56
2023-03-22T11:11:36.849Z,99807.03
2023-03-22T11:12:42.560Z,99798.22
2023-03-22T11:13:50.897Z,99805.94
2023-03-22T11:14:53.097Z,99805.19
2023-03-22T11:16:02.534Z,99799.91
2023-03-22T11:17:13.225Z,99806.00
2023-03-22T11:18:17.096Z,99802.38
2023-03-22T11:19:28.536Z,99811.81
2023-03-22T11:20:32.366Z,99805.50
2023-03-22T11:21:34.617Z,99805.50
2023-03-22T11:22:40.508Z,99799.34
2023-03-22T11:23:56.702Z,99807.28
2023-03-22T11:24:59.685Z,99804.72
2023-03-22T11:26:26.640Z,99801.16
2023-03-22T11:27:31.665Z,99795.13
2023-03-22T11:28:37.763Z,99806.44
2023-03-22T11:30:01.617Z,99808.22
2023-03-22T11:31:11.229Z,99810.00
2023-03-22T11:32:30.379Z,99804.72
2023-03-22T11:33:33.837Z,99808.13
2023-03-22T11:34:36.790Z,99816.69
2023-03-22T11:35:39.773Z,99806.16
2023-03-22T11:37:52.882Z,99810.09
2023-03-22T11:39:00.470Z,99799.34
2023-03-22T11:40:05.425Z,99802.34
2023-03-22T11:41:13.567Z,99804.16
2023-03-22T11:42:21.180Z,99806.63
2023-03-22T11:43:27.832Z,99805.75
2023-03-22T11:44:35.112Z,99807.56
2023-03-22T11:45:43.217Z,99821.59
2023-03-22T11:46:53.092Z,99821.50
2023-03-22T11:48:02.371Z,99820.84
2023-03-22T11:49:17.093Z,99827.03
2023-03-22T11:50:46.173Z,99826.00
2023-03-22T11:51:49.146Z,99829.69
2023-03-22T11:52:51.454Z,99824.72
2023-03-22T11:53:59.623Z,99826.53
2023-03-22T11:55:02.134Z,99828.50
2023-03-22T11:56:07.820Z,99820.59
2023-03-22T11:57:32.429Z,99818.78
2023-03-22T11:58:41.184Z,99820.47
2023-03-22T12:00:07.343Z,99826.44
2023-03-22T12:01:18.540Z,99815.28
2023-03-22T12:02:28.792Z,99825.88
2023-03-22T12:03:38.920Z,99825.50
2023-03-22T12:04:44.500Z,99825.09
2023-03-22T12:05:50.065Z,99830.34
2023-03-22T12:07:00.015Z,99829.59
2023-03-22T12:08:19.631Z,99833.13
2023-03-22T12:09:53.468Z,99835.75
2023-03-22T12:11:26.148Z,99840.06
2023-03-22T12:12:33.610Z,99839.31
2023-03-22T12:14:05.485Z,99839.31
2023-03-22T12:15:21.297Z,99841.78
2023-03-22T12:16:29.692Z,99835.69
2023-03-22T12:18:01.909Z,99836.50
2023-03-22T12:19:23.880Z,99841.75
2023-03-22T12:20:42.435Z,99842.53
2023-03-22T12:21:46.538Z,99850.44
2023-03-22T12:22:55.387Z,99849.56
2023-03-22T12:24:02.636Z,99843.53
2023-03-22T12:25:11.342Z,99857.50
2023-03-22T12:26:26.615Z,99851.59
2023-03-22T12:27:36.134Z,99855.94
2023-03-22T12:28:50.026Z,99848.16
2023-03-22T12:30:01.551Z,99846.47
2023-03-22T12:31:08.274Z,99853.59
2023-03-22T12:32:19.589Z,99850.06
2023-03-22T12:33:56.742Z,99854.34
2023-03-22T12:35:16.078Z,99851.59
2023-03-22T12:36:32.275Z,99848.94
2023-03-22T12:37:36.271Z,99843.06
2023-03-22T12:38:40.933Z,99858.78
2023-03-22T12:40:11.476Z,99845.84
2023-03-22T12:41:17.269Z,99856.41
2023-03-22T12:42:26.121Z,99860.97
2023-03-22T12:43:30.965Z,99860.09
2023-03-22T12:44:39.618Z,99854.00
2023-03-22T12:45:48.009Z,99857.56
2023-03-22T12:46:57.086Z,99856.53
2023-03-22T12:48:17.529Z,99863.53
2023-03-22T12:49:41.682Z,99859.22
2023-03-22T12:51:01.143Z,99858.28
2023-03-22T12:52:15.877Z,99861.81
2023-03-22T12:53:20.393Z,99861.03
2023-03-22T12:54:36.040Z,99856.78
2023-03-22T12:55:41.334Z,99869.03
2023-03-22T12:56:47.337Z,99873.41
2023-03-22T12:57:54.854Z,99862.13
2023-03-22T12:59:01.491Z,99864.94
2023-03-22T13:00:10.640Z,99864.00
2023-03-22T13:01:40.205Z,99868.44
2023-03-22T13:02:56.226Z,99867.63
2023-03-22T13:03:59.745Z,99875.47
2023-03-22T13:05:05.338Z,99880.72
2023-03-22T13:06:29.994Z,99877.06
2023-03-22T13:07:53.572Z,99882.59
2023-03-22T13:09:09.036Z,99882.66
2023-03-22T13:10:30.340Z,99879.19
2023-03-22T13:11:32.410Z,99883.59
2023-03-22T13:12:34.968Z,99881.00
2023-03-22T13:13:47.222Z,99879.16
2023-03-22T13:14:52.249Z,99882.72
2023-03-22T13:16:24.838Z,99885.28
2023-03-22T13:17:27.677Z,99890.63
2023-03-22T13:18:33.556Z,99892.34
2023-03-22T13:19:37.744Z,99900.25
2023-03-22T13:20:41.363Z,99900.34
2023-03-22T13:21:43.631Z,99899.59
2023-03-22T13:22:48.647Z,99896.13
2023-03-22T13:24:01.444Z,99895.41
2023-03-22T13:25:13.292Z,99892.84
2023-03-22T13:26:16.436Z,99899.84
2023-03-22T13:27:18.281Z,99904.16
2023-03-22T13:28:24.763Z,99902.19
2023-03-22T13:29:38.355Z,99903.16
2023-03-22T13:30:55.041Z,99900.59
2023-03-22T13:32:02.202Z,99904.19
2023-03-22T13:33:10.584Z,99901.66